createdAt,value
2023-11-24T00:00:15.725Z,19.77
2023-11-24T00:02:42.317Z,13.43
2023-11-24T00:05:09.093Z,17.48
2023-11-24T00:07:36.240Z,11.48
2023-11-24T00:10:03.994Z,15.68
2023-11-24T00:12:30.587Z,23.88
2023-11-24T00:14:57.251Z,16.13
2023-11-24T00:17:23.735Z,10.68
2023-11-24T00:19:50.245Z,7.82
2023-11-24T00:22:16.727Z,10.77
2023-11-24T00:24:43.198Z,7.97
2023-11-24T00:27:09.671Z,8.55
2023-11-24T00:29:36.278Z,10.98
2023-11-24T00:32:02.973Z,9.32
2023-11-24T00:34:29.541Z,7.82
2023-11-24T00:36:56.155Z,9.20
2023-11-24T00:39:22.671Z,12.38
2023-11-24T00:41:49.261Z,8.93
2023-11-24T00:44:15.837Z,8.70
2023-11-24T00:46:42.477Z,12.05
2023-11-24T00:49:08.946Z,9.95
2023-11-24T00:51:35.500Z,10.77
2023-11-24T00:54:02.062Z,13.60
2023-11-24T00:56:28.603Z,11.20
2023-11-24T00:58:55.116Z,13.95
2023-11-24T01:01:21.712Z,8.35
2023-11-24T01:03:48.270Z,8.90
2023-11-24T01:06:14.843Z,15.60
2023-11-24T01:08:41.367Z,9.88
2023-11-24T01:11:07.924Z,8.00
2023-11-24T01:13:34.553Z,10.15
2023-11-24T01:16:01.146Z,7.43
2023-11-24T01:18:27.773Z,8.55
2023-11-24T01:20:54.323Z,9.50
2023-11-24T01:23:20.852Z,11.82
2023-11-24T01:25:47.681Z,9.35
2023-11-24T01:28:14.222Z,9.32
2023-11-24T01:30:41.616Z,10.88
2023-11-24T01:33:08.203Z,9.43
2023-11-24T01:35:34.827Z,9.95
2023-11-24T01:38:01.367Z,9.68
2023-11-24T01:40:27.901Z,9.40
2023-11-24T01:42:54.396Z,9.00
2023-11-24T01:45:20.957Z,10.15
2023-11-24T01:47:47.474Z,11.52
2023-11-24T01:50:15.702Z,10.40
2023-11-24T01:52:42.526Z,9.98
2023-11-24T01:55:09.593Z,10.40
2023-11-24T01:57:36.296Z,10.57
2023-11-24T02:00:03.119Z,9.82
2023-11-24T02:02:30.464Z,12.48
2023-11-24T02:04:57.306Z,9.50
2023-11-24T02:07:24.034Z,10.77
2023-11-24T02:09:51.009Z,11.55
2023-11-24T02:12:17.585Z,15.27
2023-11-24T02:14:44.125Z,12.63
2023-11-24T02:17:10.650Z,13.02
2023-11-24T02:19:37.317Z,11.95
2023-11-24T02:22:03.835Z,10.48
2023-11-24T02:24:30.372Z,11.20
2023-11-24T02:26:57.143Z,13.60
2023-11-24T02:29:23.682Z,10.43
2023-11-24T02:31:50.210Z,9.80
2023-11-24T02:34:16.827Z,9.75
2023-11-24T02:36:43.480Z,10.20
2023-11-24T02:39:10.210Z,9.98
2023-11-24T02:41:36.768Z,10.40
2023-11-24T02:44:03.444Z,10.73
2023-11-24T02:46:29.946Z,11.68
2023-11-24T02:48:56.687Z,10.70
2023-11-24T02:51:23.457Z,11.52
2023-11-24T02:53:50.076Z,12.23
2023-11-24T02:56:16.682Z,11.68
2023-11-24T02:58:43.245Z,12.00
2023-11-24T03:01:11.870Z,10.93
2023-11-24T03:03:38.456Z,12.00
2023-11-24T03:06:05.066Z,11.23
2023-11-24T03:08:31.899Z,11.77
2023-11-24T03:10:58.479Z,13.23
2023-11-24T03:13:25.116Z,12.32
2023-11-24T03:15:52.538Z,29.20
2023-11-24T03:18:19.109Z,11.48
2023-11-24T03:20:45.753Z,12.93
2023-11-24T03:23:12.306Z,15.85
2023-11-24T03:25:38.836Z,11.35
2023-11-24T03:28:05.423Z,11.30
2023-11-24T03:30:31.966Z,11.60
2023-11-24T03:32:58.559Z,11.27
2023-11-24T03:35:25.123Z,13.93
2023-11-24T03:37:51.781Z,12.20
2023-11-24T03:40:18.403Z,13.77
2023-11-24T03:42:45.008Z,11.27
2023-11-24T03:45:11.740Z,12.00
2023-11-24T03:47:38.308Z,12.80
2023-11-24T03:50:05.341Z,11.80
2023-11-24T03:52:32.022Z,11.93
2023-11-24T03:54:58.568Z,12.38
2023-11-24T03:57:25.323Z,11.35
2023-11-24T03:59:51.988Z,19.77
2023-11-24T04:02:18.550Z,12.95
2023-11-24T04:04:45.368Z,13.68
2023-11-24T04:07:11.964Z,12.85
2023-11-24T04:09:38.489Z,13.50
2023-11-24T04:12:05.362Z,11.93
2023-11-24T04:14:31.950Z,13.48
2023-11-24T04:17:01.273Z,13.02
2023-11-24T04:19:28.091Z,13.30
2023-11-24T04:21:54.601Z,14.02
2023-11-24T04:24:21.180Z,13.35
2023-11-24T04:26:47.707Z,13.40
2023-11-24T04:29:14.232Z,13.38
2023-11-24T04:31:40.813Z,12.57
2023-11-24T04:34:07.506Z,13.52
2023-11-24T04:36:34.199Z,15.93
2023-11-24T04:39:00.724Z,11.07
2023-11-24T04:41:27.623Z,11.60
2023-11-24T04:43:54.272Z,15.43
2023-11-24T04:46:20.928Z,11.98
2023-11-24T04:48:47.527Z,11.02
2023-11-24T04:51:14.032Z,10.15
2023-11-24T04:53:41.556Z,11.80
2023-11-24T04:56:08.417Z,12.65
2023-11-24T04:58:34.956Z,13.18
2023-11-24T05:01:01.549Z,12.35
2023-11-24T05:03:28.186Z,14.30
2023-11-24T05:05:54.772Z,12.10
2023-11-24T05:08:21.260Z,11.98
2023-11-24T05:10:47.827Z,11.82
2023-11-24T05:13:14.360Z,14.02
2023-11-24T05:15:40.916Z,12.43
2023-11-24T05:18:07.594Z,13.18
2023-11-24T05:20:34.126Z,13.02
2023-11-24T05:23:00.683Z,12.60
2023-11-24T05:25:27.196Z,12.93
2023-11-24T05:27:53.772Z,14.15
2023-11-24T05:30:20.273Z,21.50
2023-11-24T05:32:46.877Z,43.97
2023-11-24T05:35:13.461Z,42.03
2023-11-24T05:37:40.003Z,37.97
2023-11-24T05:40:07.493Z,24.90
2023-11-24T05:42:34.101Z,13.65
2023-11-24T05:45:00.692Z,17.70
2023-11-24T05:47:27.378Z,11.25
2023-11-24T05:49:53.911Z,12.05
2023-11-24T05:52:20.544Z,12.52
2023-11-24T05:54:47.288Z,11.88
2023-11-24T05:57:13.802Z,13.80
2023-11-24T05:59:40.500Z,10.25
2023-11-24T06:02:07.196Z,10.85
2023-11-24T06:04:33.858Z,14.63
2023-11-24T06:07:00.533Z,13.90
2023-11-24T06:09:27.160Z,12.82
2023-11-24T06:11:53.754Z,10.80
2023-11-24T06:14:20.280Z,10.63
2023-11-24T06:16:46.847Z,11.57
2023-11-24T06:19:13.459Z,14.27
2023-11-24T06:21:39.987Z,10.13
2023-11-24T06:24:06.877Z,10.50
2023-11-24T06:26:33.494Z,9.43
2023-11-24T06:28:59.994Z,10.02
2023-11-24T06:31:26.584Z,10.35
2023-11-24T06:33:53.206Z,15.52
2023-11-24T06:36:19.851Z,16.77
2023-11-24T06:38:46.334Z,9.82
2023-11-24T06:41:12.877Z,9.85
2023-11-24T06:43:39.446Z,10.93
2023-11-24T06:46:06.729Z,10.45
2023-11-24T06:48:33.522Z,10.45
2023-11-24T06:51:00.221Z,16.67
2023-11-24T06:53:26.815Z,10.32
2023-11-24T06:55:53.348Z,8.90
2023-11-24T06:58:19.870Z,9.95
2023-11-24T07:00:46.445Z,11.93
2023-11-24T07:03:12.981Z,15.73
2023-11-24T07:05:39.541Z,12.15
2023-11-24T07:08:06.097Z,12.10
2023-11-24T07:10:32.774Z,19.27
2023-11-24T07:12:59.336Z,37.08
2023-11-24T07:15:26.111Z,49.92
2023-11-24T07:17:52.852Z,34.95
2023-11-24T07:20:19.412Z,29.88
2023-11-24T07:22:46.017Z,24.77
2023-11-24T07:25:13.115Z,14.13
2023-11-24T07:27:39.657Z,14.10
2023-11-24T07:30:06.893Z,14.13
2023-11-24T07:32:33.563Z,11.75
2023-11-24T07:35:00.297Z,12.02
2023-11-24T07:37:26.852Z,10.48
2023-11-24T07:39:54.193Z,14.30
2023-11-24T07:42:20.767Z,19.83
2023-11-24T07:44:47.308Z,19.38
2023-11-24T07:47:13.802Z,27.75
2023-11-24T07:49:40.309Z,27.58
2023-11-24T07:52:07.085Z,29.23
2023-11-24T07:54:33.791Z,24.67
2023-11-24T07:57:00.317Z,24.33
2023-11-24T07:59:26.889Z,23.15
2023-11-24T08:01:53.694Z,19.75
2023-11-24T08:04:20.379Z,18.35
2023-11-24T08:06:47.107Z,16.08
2023-11-24T08:09:13.837Z,20.98
2023-11-24T08:11:40.388Z,23.42
2023-11-24T08:14:06.993Z,16.35
2023-11-24T08:16:33.585Z,16.60
2023-11-24T08:19:00.281Z,19.30
2023-11-24T08:21:26.919Z,19.00
2023-11-24T08:23:53.550Z,22.75
2023-11-24T08:26:20.461Z,16.95
2023-11-24T08:28:47.146Z,17.83
2023-11-24T08:31:21.014Z,12.10
2023-11-24T08:33:48.049Z,18.33
2023-11-24T08:36:14.614Z,13.45
2023-11-24T08:38:41.228Z,10.82
2023-11-24T08:41:26.227Z,19.98
2023-11-24T08:44:01.598Z,10.60
2023-11-24T08:46:28.343Z,14.23
2023-11-24T08:48:54.970Z,9.93
2023-11-24T08:51:21.520Z,11.25
2023-11-24T08:53:48.100Z,15.13
2023-11-24T08:56:14.644Z,14.15
2023-11-24T08:58:41.170Z,9.90
2023-11-24T09:01:07.854Z,10.20
2023-11-24T09:03:34.507Z,9.73
2023-11-24T09:06:01.201Z,11.38
2023-11-24T09:08:27.830Z,11.32
2023-11-24T09:10:54.543Z,10.77
2023-11-24T09:13:21.131Z,10.43
2023-11-24T09:15:47.725Z,16.77
2023-11-24T09:18:14.447Z,10.27
2023-11-24T09:20:41.013Z,9.23
2023-11-24T09:23:07.598Z,11.68
2023-11-24T09:25:34.104Z,11.05
2023-11-24T09:28:01.727Z,10.20
2023-11-24T09:30:28.735Z,10.85
2023-11-24T09:32:55.512Z,10.25
2023-11-24T09:35:26.415Z,13.63
2023-11-24T09:37:52.997Z,18.30
2023-11-24T09:40:20.160Z,12.88
2023-11-24T09:42:47.548Z,13.50
2023-11-24T09:45:18.024Z,9.50
2023-11-24T09:47:48.276Z,10.80
2023-11-24T09:50:15.270Z,7.57
2023-11-24T09:52:43.865Z,7.72
2023-11-24T09:55:10.519Z,7.22
2023-11-24T09:57:37.213Z,6.18
2023-11-24T10:00:04.086Z,7.45
2023-11-24T10:02:30.797Z,8.75
2023-11-24T10:04:57.512Z,7.63
2023-11-24T10:07:24.224Z,6.97
2023-11-24T10:09:51.329Z,9.00
2023-11-24T10:12:18.764Z,5.90
2023-11-24T10:14:45.594Z,5.68
2023-11-24T10:17:12.307Z,6.50
2023-11-24T10:19:39.155Z,6.15
2023-11-24T10:22:05.860Z,5.20
2023-11-24T10:24:36.852Z,5.70
2023-11-24T10:27:23.360Z,5.97
2023-11-24T10:29:51.040Z,4.80
2023-11-24T10:32:19.710Z,6.90
2023-11-24T10:34:47.036Z,5.30
2023-11-24T10:37:16.305Z,5.32
2023-11-24T10:39:45.933Z,4.72
2023-11-24T10:42:13.141Z,4.40
2023-11-24T10:44:41.865Z,4.13
2023-11-24T10:47:11.019Z,4.43
2023-11-24T10:49:58.701Z,5.38
2023-11-24T10:52:36.165Z,5.85
2023-11-24T10:55:10.658Z,5.22
2023-11-24T10:57:37.294Z,5.75
2023-11-24T11:00:04.715Z,5.32
2023-11-24T11:02:31.980Z,4.70
2023-11-24T11:05:02.490Z,5.68
2023-11-24T11:07:41.489Z,5.93
2023-11-24T11:10:08.838Z,6.75
2023-11-24T11:12:40.002Z,6.82
2023-11-24T11:15:10.347Z,6.38
2023-11-24T11:17:37.348Z,5.75
2023-11-24T11:20:10.563Z,7.60
2023-11-24T11:22:37.608Z,5.20
2023-11-24T11:25:25.705Z,7.45
2023-11-24T11:27:53.105Z,5.65
2023-11-24T11:30:20.702Z,7.13
2023-11-24T11:32:47.354Z,5.38
2023-11-24T11:35:14.070Z,5.93
2023-11-24T11:37:42.362Z,5.68
2023-11-24T11:40:13.926Z,4.68
2023-11-24T11:45:22.549Z,5.75
2023-11-24T11:47:50.156Z,4.55
2023-11-24T11:50:20.951Z,3.92
2023-11-24T11:52:50.419Z,4.23
2023-11-24T11:55:24.223Z,4.25
2023-11-24T11:57:56.891Z,3.97
2023-11-24T12:00:31.064Z,5.28
2023-11-24T12:02:59.353Z,4.53
2023-11-24T12:05:26.444Z,3.78
2023-11-24T12:07:53.700Z,4.28
2023-11-24T12:10:20.591Z,3.42
2023-11-24T12:12:50.628Z,3.45
2023-11-24T12:15:17.358Z,4.20
2023-11-24T12:17:51.193Z,3.72
2023-11-24T12:20:18.030Z,8.68
2023-11-24T12:22:45.845Z,3.97
2023-11-24T12:25:12.949Z,5.05
2023-11-24T12:27:42.969Z,5.32
2023-11-24T12:30:13.521Z,4.53
2023-11-24T12:32:43.578Z,4.60
2023-11-24T12:35:10.644Z,4.85
2023-11-24T12:37:41.567Z,5.07
2023-11-24T12:40:09.658Z,4.57
2023-11-24T12:42:36.327Z,6.20
2023-11-24T12:45:03.148Z,5.13
2023-11-24T12:50:18.108Z,4.68
2023-11-24T12:52:46.278Z,6.10
2023-11-24T12:55:13.338Z,3.95
2023-11-24T12:57:41.700Z,5.90
2023-11-24T13:00:09.335Z,5.60
2023-11-24T13:02:37.609Z,6.13
2023-11-24T13:05:04.662Z,3.95
2023-11-24T13:07:31.434Z,7.15
2023-11-24T13:09:58.153Z,3.30
2023-11-24T13:12:24.786Z,5.13
2023-11-24T13:14:51.311Z,3.88
2023-11-24T13:17:17.910Z,4.10
2023-11-24T13:19:44.578Z,4.05
2023-11-24T13:22:11.455Z,4.20
2023-11-24T13:24:38.375Z,3.45
2023-11-24T13:27:05.953Z,3.20
2023-11-24T13:29:32.533Z,3.10
2023-11-24T13:31:59.378Z,4.10
2023-11-24T13:34:25.961Z,3.97
2023-11-24T13:36:52.598Z,4.70
2023-11-24T13:39:19.198Z,5.45
2023-11-24T13:41:45.904Z,3.67
2023-11-24T13:44:12.875Z,4.72
2023-11-24T13:46:39.732Z,3.30
2023-11-24T13:49:12.412Z,1.67
2023-11-24T13:51:39.089Z,2.67
2023-11-24T13:54:05.908Z,1.48
2023-11-24T13:56:32.548Z,2.35
2023-11-24T13:58:59.713Z,2.67
2023-11-24T14:01:26.593Z,1.48
2023-11-24T14:03:53.699Z,2.85
2023-11-24T14:06:20.308Z,1.45
2023-11-24T14:08:46.886Z,2.63
2023-11-24T14:11:13.500Z,2.38
2023-11-24T14:13:40.128Z,3.38
2023-11-24T14:16:07.163Z,2.13
2023-11-24T14:18:33.961Z,3.20
2023-11-24T14:21:00.603Z,2.33
2023-11-24T14:23:27.111Z,1.15
2023-11-24T14:25:53.720Z,1.52
2023-11-24T14:28:20.656Z,3.78
2023-11-24T14:30:47.256Z,1.63
2023-11-24T14:33:14.007Z,2.33
2023-11-24T14:35:40.540Z,1.75
2023-11-24T14:38:07.149Z,3.22
2023-11-24T14:40:33.769Z,3.97
2023-11-24T14:43:00.670Z,1.85
2023-11-24T14:45:27.303Z,2.00
2023-11-24T14:47:53.861Z,3.17
2023-11-24T14:50:21.346Z,2.10
2023-11-24T14:52:47.950Z,1.67
2023-11-24T14:55:14.588Z,2.58
2023-11-24T14:57:41.126Z,5.10
2023-11-24T15:00:08.167Z,4.10
2023-11-24T15:02:34.976Z,2.75
2023-11-24T15:05:01.752Z,2.13
2023-11-24T15:07:28.441Z,1.67
2023-11-24T15:09:54.952Z,2.72
2023-11-24T15:12:21.524Z,2.25
2023-11-24T15:14:48.055Z,3.63
2023-11-24T15:17:14.646Z,1.73
2023-11-24T15:19:41.277Z,3.20
2023-11-24T15:22:08.250Z,1.70
2023-11-24T15:24:35.258Z,1.00
2023-11-24T15:27:01.855Z,1.98
2023-11-24T15:29:28.373Z,2.60
2023-11-24T15:31:55.060Z,4.60
2023-11-24T15:34:21.732Z,3.67
2023-11-24T15:36:48.921Z,5.32
2023-11-24T15:39:15.486Z,3.90
2023-11-24T15:41:42.128Z,4.80
2023-11-24T15:44:11.825Z,3.42
2023-11-24T15:46:39.910Z,4.18
2023-11-24T15:49:06.726Z,4.18
2023-11-24T15:51:33.302Z,5.15
2023-11-24T15:53:59.916Z,5.65
2023-11-24T15:56:29.564Z,3.67
2023-11-24T15:58:56.087Z,5.00
2023-11-24T16:01:23.745Z,5.97
2023-11-24T16:03:50.870Z,8.50
2023-11-24T16:06:18.126Z,14.07
2023-11-24T16:08:44.639Z,17.83
2023-11-24T16:11:11.836Z,26.52
2023-11-24T16:13:38.639Z,30.23
2023-11-24T16:16:05.699Z,34.60
2023-11-24T16:18:35.466Z,30.88
2023-11-24T16:21:02.528Z,19.45
2023-11-24T16:23:29.010Z,16.20
2023-11-24T16:25:55.577Z,19.00
2023-11-24T16:28:22.198Z,16.05
2023-11-24T16:30:48.798Z,15.82
2023-11-24T16:33:15.546Z,14.73
2023-11-24T16:35:42.052Z,21.85
2023-11-24T16:38:08.819Z,20.13
2023-11-24T16:40:35.535Z,20.45
2023-11-24T16:43:02.250Z,23.95
2023-11-24T16:45:28.801Z,33.40
2023-11-24T16:47:55.334Z,45.80
2023-11-24T16:50:21.901Z,57.03
2023-11-24T16:52:48.454Z,53.10
2023-11-24T16:55:15.019Z,47.63
2023-11-24T16:57:41.653Z,55.63
2023-11-24T17:00:08.837Z,49.33
2023-11-24T17:02:35.657Z,40.20
2023-11-24T17:05:02.553Z,42.60
2023-11-24T17:07:29.144Z,50.10
2023-11-24T17:09:55.815Z,71.90
2023-11-24T17:12:22.390Z,73.97
2023-11-24T17:14:48.954Z,55.83
2023-11-24T17:17:15.779Z,66.28
2023-11-24T17:19:42.312Z,79.38
2023-11-24T17:22:08.936Z,84.18
2023-11-24T17:24:35.522Z,58.38
2023-11-24T17:27:02.436Z,40.33
2023-11-24T17:29:28.929Z,42.28
2023-11-24T17:31:55.498Z,68.72
2023-11-24T17:34:22.821Z,47.72
2023-11-24T17:36:49.594Z,41.58
2023-11-24T17:39:16.171Z,38.15
2023-11-24T17:41:42.810Z,37.25
2023-11-24T17:44:10.095Z,40.08
2023-11-24T17:46:39.397Z,37.60
2023-11-24T17:49:06.444Z,44.75
2023-11-24T17:51:33.098Z,41.78
2023-11-24T17:54:00.530Z,43.13
2023-11-24T17:56:27.638Z,46.30
2023-11-24T17:58:54.206Z,54.60
2023-11-24T18:01:20.846Z,55.25
2023-11-24T18:03:47.744Z,22.23
2023-11-24T18:06:14.392Z,18.83
2023-11-24T18:08:40.934Z,11.05
2023-11-24T18:11:07.797Z,23.08
2023-11-24T18:13:34.748Z,24.63
2023-11-24T18:16:01.391Z,28.85
2023-11-24T18:18:28.155Z,26.98
2023-11-24T18:20:54.712Z,47.28
2023-11-24T18:23:21.275Z,38.15
2023-11-24T18:25:47.858Z,42.42
2023-11-24T18:28:14.560Z,49.63
2023-11-24T18:30:41.214Z,45.92
2023-11-24T18:33:07.860Z,52.42
2023-11-24T18:35:34.503Z,56.88
2023-11-24T18:38:01.135Z,60.40
2023-11-24T18:40:27.779Z,53.03
2023-11-24T18:42:54.566Z,51.30
2023-11-24T18:45:21.119Z,53.95
2023-11-24T18:47:47.935Z,38.10
2023-11-24T18:50:14.583Z,47.30
2023-11-24T18:52:41.459Z,48.30
2023-11-24T18:55:08.265Z,50.22
2023-11-24T18:57:35.037Z,83.22
2023-11-24T19:00:02.072Z,122.30
2023-11-24T19:02:28.753Z,118.15
2023-11-24T19:04:55.732Z,212.77
2023-11-24T19:07:22.857Z,229.68
2023-11-24T19:09:52.575Z,249.77
2023-11-24T19:12:19.358Z,273.67
2023-11-24T19:14:45.899Z,262.58
2023-11-24T19:17:12.456Z,313.52
2023-11-24T19:19:39.029Z,336.88
2023-11-24T19:22:05.567Z,244.60
2023-11-24T19:24:32.114Z,218.63
2023-11-24T19:26:58.667Z,145.20
2023-11-24T19:29:25.128Z,116.35
2023-11-24T19:31:51.768Z,115.47
2023-11-24T19:34:18.362Z,128.00
2023-11-24T19:36:44.950Z,131.35
2023-11-24T19:39:11.457Z,62.25
2023-11-24T19:41:38.170Z,44.83
2023-11-24T19:44:05.151Z,98.57
2023-11-24T19:46:31.784Z,89.00
2023-11-24T19:48:58.333Z,110.57
2023-11-24T19:51:24.829Z,105.80
2023-11-24T19:53:53.443Z,99.63
2023-11-24T19:56:20.976Z,83.18
2023-11-24T19:58:47.525Z,124.75
2023-11-24T20:01:20.324Z,143.00
2023-11-24T20:03:47.491Z,135.05
2023-11-24T20:06:14.258Z,132.25
2023-11-24T20:08:40.838Z,146.70
2023-11-24T20:11:07.362Z,136.80
2023-11-24T20:13:34.104Z,126.95
2023-11-24T20:16:00.820Z,127.93
2023-11-24T20:18:29.587Z,142.13
2023-11-24T20:20:56.140Z,134.02
2023-11-24T20:23:22.685Z,148.35
2023-11-24T20:25:49.239Z,137.65
2023-11-24T20:28:15.852Z,136.90
2023-11-24T20:30:42.349Z,123.25
2023-11-24T20:33:08.893Z,133.93
2023-11-24T20:35:35.418Z,130.32
2023-11-24T20:38:01.963Z,128.75
2023-11-24T20:40:28.593Z,125.28
2023-11-24T20:42:55.177Z,133.73
2023-11-24T20:45:21.806Z,129.52
2023-11-24T20:47:48.481Z,144.57
2023-11-24T20:50:15.089Z,135.02
2023-11-24T20:52:41.673Z,142.88
2023-11-24T20:55:08.442Z,142.10
2023-11-24T20:57:34.981Z,146.10
2023-11-24T21:00:01.561Z,151.00
2023-11-24T21:02:28.220Z,137.75
2023-11-24T21:04:54.768Z,142.13
2023-11-24T21:07:21.333Z,147.52
2023-11-24T21:09:47.955Z,148.10
2023-11-24T21:12:14.441Z,148.68
2023-11-24T21:14:40.951Z,168.07
2023-11-24T21:17:07.569Z,221.15
2023-11-24T21:19:34.145Z,217.68
2023-11-24T21:22:00.790Z,154.57
2023-11-24T21:24:27.416Z,101.22
2023-11-24T21:26:53.910Z,91.30
2023-11-24T21:29:20.432Z,92.68
2023-11-24T21:31:46.990Z,85.53
2023-11-24T21:34:13.537Z,87.82
2023-11-24T21:36:40.131Z,88.53
2023-11-24T21:39:06.721Z,79.18
2023-11-24T21:41:33.302Z,77.25
2023-11-24T21:43:59.895Z,76.45
2023-11-24T21:46:26.650Z,68.55
2023-11-24T21:48:53.299Z,72.28
2023-11-24T21:51:19.921Z,63.60
2023-11-24T21:53:46.590Z,72.22
2023-11-24T21:56:13.281Z,62.10
2023-11-24T21:58:40.511Z,61.67
2023-11-24T22:01:07.191Z,51.58
2023-11-24T22:03:33.935Z,55.25
2023-11-24T22:06:00.510Z,62.78
2023-11-24T22:08:27.018Z,57.20
2023-11-24T22:10:53.649Z,60.70
2023-11-24T22:13:20.661Z,54.88
2023-11-24T22:15:47.204Z,61.58
2023-11-24T22:18:13.813Z,53.05
2023-11-24T22:20:40.382Z,59.50
2023-11-24T22:23:06.915Z,50.10
2023-11-24T22:25:34.358Z,63.35
2023-11-24T22:28:01.035Z,57.10
2023-11-24T22:30:27.731Z,54.00
2023-11-24T22:32:54.268Z,58.05
2023-11-24T22:35:20.755Z,53.13
2023-11-24T22:37:47.288Z,52.90
2023-11-24T22:40:14.003Z,54.47
2023-11-24T22:42:40.602Z,56.22
2023-11-24T22:45:07.944Z,51.15
2023-11-24T22:47:34.584Z,56.40
2023-11-24T22:50:01.203Z,54.13
2023-11-24T22:52:27.803Z,72.85
2023-11-24T22:54:54.326Z,66.78
2023-11-24T22:57:20.847Z,58.55
2023-11-24T22:59:48.232Z,58.53
2023-11-24T23:02:14.904Z,68.05
2023-11-24T23:04:41.572Z,65.57
2023-11-24T23:07:08.268Z,63.83
2023-11-24T23:09:34.833Z,57.35
2023-11-24T23:12:01.325Z,55.53
2023-11-24T23:14:27.788Z,47.08
2023-11-24T23:16:54.309Z,47.38
2023-11-24T23:19:20.991Z,47.20
2023-11-24T23:21:49.616Z,49.95
2023-11-24T23:24:16.128Z,40.92
2023-11-24T23:26:42.812Z,39.28
2023-11-24T23:29:09.292Z,43.30
2023-11-24T23:31:36.006Z,50.28
2023-11-24T23:34:02.900Z,46.53
2023-11-24T23:36:29.623Z,42.30
2023-11-24T23:38:56.231Z,46.58
2023-11-24T23:41:22.747Z,55.97
2023-11-24T23:43:49.391Z,60.72
2023-11-24T23:46:16.036Z,41.10
2023-11-24T23:48:42.612Z,47.15
2023-11-24T23:51:09.177Z,53.65
2023-11-24T23:53:35.892Z,61.58
2023-11-24T23:56:02.477Z,67.93
2023-11-24T23:58:29.519Z,64.25
